Tiempo atmosférico en la estación meteorológica de Teruel, Teruel (900 m.)



Fecha
DESCASC
Temp. máxima en grados centígrados (hora)
DESCASC
Temp. mínima en grados centígrados (hora)
DESCASC
Temp. media en grados centígrados
DESCASC
Racha de viento máxima en m/sg (hora)
DESCASC
Velocidad máxima media en intervalos de 10 minutos(hora)
DESCASC
Precipitaciones diarias en mm
DESCASC
Precipitaciones de 00:00 a 06:00 en mm
DESCASC
Precipitaciones de 06:00 a 12:00 en mm
DESCASC
Precipitaciones de 12:00 a 18:00 en mm
DESCASC
Precipitaciones de 18:00 a 24:00 en mm
DESCASC
02-08-2020 36.7 (18:10) 14.1 (07:10) 25.4 9.72 (18:40) 5 (18:40) 0 0 0 0 0
01-08-2020 37.6 (16:20) 17 (07:20) 27.3 12.22 (15:30) 6.67 (15:10) 0 0 0 0 0
31-07-2020 39.3 (17:20) 17.7 (06:40) 28.5 8.61 (15:40) 3.89 (15:40) 0 0 0 0 0
30-07-2020 37.5 (15:20) 16.6 (00:00) 27.1 13.89 (18:00) 5.83 (21:20) 0 0 0 0 0
29-07-2020 35.5 (17:10) 16 (00:00) 25.8 8.61 (18:30) 3.61 (18:20) 0 0 0 0 0
28-07-2020 36.9 (15:30) 17 (07:20) 27 9.72 (14:40) 5 (15:10) 0 0 0 0 0
27-07-2020 38.6 (16:30) 16.4 (00:00) 27.5 10.28 (13:50) 5.83 (12:10) 0 0 0 0 0
26-07-2020 38.7 (17:30) 16.5 (00:00) 27.6 8.33 (21:30) 3.61 (16:50) 0 0 0 0 0
25-07-2020 36.4 (17:10) 14.8 (07:30) 25.6 11.11 (15:30) 4.17 (16:40) 0 0 0 0 0
24-07-2020 34.8 (16:30) 15.4 (00:00) 25.1 8.06 (19:00) 3.33 (19:00) 0 0 0 0 0
23-07-2020 35.5 (17:00) 10.5 (00:00) 23 8.06 (19:20) 2.78 (19:40) 0 0 0 0 0
22-07-2020 27.6 (19:00) 15.1 (07:20) 21.4 11.11 (14:40) 3.33 (14:40) 1 0 0.6 0.4 0
21-07-2020 35.4 (15:00) 16.9 (00:00) 26.2 11.11 (18:50) 3.89 (18:40) 0 0 0 0 0
20-07-2020 36.1 (16:20) 16.8 (06:00) 26.4 9.44 (16:40) 4.44 (15:20) 0 0 0 0 0
19-07-2020 35.5 (15:50) 16.6 (00:00) 26.1 9.44 (20:50) 3.33 (20:40) 0.6 0 0 0 0.6
18-07-2020 34.5 (18:10) 12.3 (00:00) 23.4 7.22 (11:40) 3.61 (11:50) 0 0 0 0 0
17-07-2020 32 (17:10) 12.9 (00:00) 22.4 8.06 (19:30) 3.33 (19:20) 0 0 0 0 0
16-07-2020 32.3 (17:30) 11.9 (00:00) 22.1 8.33 (19:10) 3.61 (20:00) 0 0 0 0 0
15-07-2020 29.3 (17:20) 10.9 (07:30) 20.1 7.5 (19:40) 3.33 (20:20) 0 0 0 0 0
14-07-2020 26.8 (14:20) 14.8 (00:00) 20.8 7.22 (15:30) 3.61 (18:20) 0 0 0 0 0
13-07-2020 31.9 (16:10) 15.2 (07:30) 23.5 8.06 (20:10) 3.61 (20:00) 0.2 0 0.2 0 0
12-07-2020 31.7 (14:00) 16 (06:00) 23.9 13.89 (15:10) 4.44 (15:10) 11.6 0 0 11.6 0
11-07-2020 32.5 (15:50) 14.6 (07:20) 23.6 9.17 (15:10) 3.61 (16:00) 0 0 0 0 0
10-07-2020 33.9 (16:20) 11.7 (00:00) 22.8 9.17 (17:40) 3.89 (17:30) 0 0 0 0 0
09-07-2020 32.1 (18:10) 16.1 (04:00) 24.1 14.72 (21:10) 5.28 (21:10) 1.4 0 1.2 0.2 0
08-07-2020 34.4 (15:20) 16.7 (07:10) 25.6 25.28 (18:00) 13.33 (18:00) 1 0 0 0 1

Gráficas

Temp. máximas Temp. mínimas Temp. medias Precipitaciones Rachas de viento máximas Velocidades máximas media en intervalos de 10 minutos

Datos horarios

Fecha y hora oficial Temperatura (ºC) Velocidad del viento (km/h) Dirección del viento Racha (km/h) Dirección de racha Precipitación (mm) Presión (hPa) Tendencia (hPa) Humedad (%)
2020-08-06 23:00:00 24.8 4 Sudeste 16 Sur 0 917.2 2.6 55
2020-08-06 22:00:00 25.9 8 Sur 19 Sudoeste 0 916.2 2 51
2020-08-06 21:00:00 27 8 Este 33 Este 0 915.3 1.4 51
2020-08-06 20:00:00 29.9 8 Sudeste 29 Sudeste 0 914.6 -- 44
2020-08-06 19:00:00 31.5 10 Este 33 Este 0 914.2 -- 39
2020-08-06 18:00:00 35.8 6 Sudeste 23 Nordeste 0 913.9 -- 27
2020-08-06 17:00:00 36.4 4 Este 13 Sudeste 0 914.2 -- 18
2020-08-06 16:00:00 36.4 5 Este 17 Sur 0 914.5 -- 21
2020-08-06 15:00:00 35.3 6 Sur 18 Sudoeste 0 914.9 -- 22
2020-08-06 14:00:00 33.9 9 Sudoeste 23 Sur 0 915.4 -- 27
2020-08-06 13:00:00 32.3 11 Sur 24 Sur 0 915.8 -- 29
2020-08-06 12:00:00 29.4 9 Sur 24 Sudoeste 0 916.1 -- 37
2020-08-06 11:00:00 27.1 5 Sudeste 12 Sudeste 0 916.3 -- 47
2020-08-06 10:00:00 24.6 3 Este 6 Este 0 916.3 -- 60
2020-08-06 09:00:00 21.4 3 Este 7 Este 0 916.3 -- 77
2020-08-06 08:00:00 17.9 2 Sudeste 5 Sur 0 916.1 -- 91
2020-08-06 07:00:00 18.1 0 Calma 5 Este 0 915.7 -- 90
2020-08-06 06:00:00 18.7 3 Sudeste 9 Sudeste 0 915.3 -- 90
2020-08-06 05:00:00 19 3 Sudeste 6 Sudeste 0 915.3 -- 89
2020-08-06 04:00:00 19.8 3 Este 5 Este 0 915.2 -- 88
2020-08-06 03:00:00 20.5 2 Sur 12 Sur 0 915.3 -- 83
2020-08-06 02:00:00 21.1 6 Sur 13 Sur 0 915.3 -- 82
2020-08-06 01:00:00 21.8 6 Sur 14 Sur 0 915.3 -- 79
2020-08-06 00:00:00 23 8 Sur 17 Sur 0 914.9 -- 74
2020-08-05 23:00:00 23.8 4 Sudeste 12 Este 0 914.6 -- 71
2020-08-05 22:00:00 24.8 7 Sudeste 24 Este 0 913.5 -- 67
2020-08-05 21:00:00 26.2 9 Este 31 Este 0 912.4 -- 63
2020-08-05 20:00:00 29.6 6 Sudeste 22 Este 0 911.4 -- 51
2020-08-05 19:00:00 33.6 9 Este 21 Sudeste 0 910.9 -- 36
2020-08-05 18:00:00 35.9 4 Sudoeste 18 Oeste 0 910.8 -- 22
2020-08-05 17:00:00 35.6 8 Sur 14 Sur 0 911.1 -- 22
2020-08-05 16:00:00 33.8 6 Noroeste 14 Noroeste 0 911.6 -- 26
2020-08-05 15:00:00 33.2 6 Este 15 Sur 0 912 -- 29
2020-08-05 14:00:00 31.4 5 Nordeste 14 Nordeste 0 912.5 -- 30
2020-08-05 13:00:00 30.6 5 Sudeste 14 Sur 0 913 -- 32
2020-08-05 12:00:00 27.9 6 Sur 18 Sur 0 913.6 -- 39
2020-08-05 11:00:00 25.6 8 Sur 16 Sur 0 913.8 -- 60
2020-08-05 10:00:00 23.2 9 Sur 19 Sur 0 914 -- 68
2020-08-05 09:00:00 20.5 3 Sur 10 Sur 0 914.1 -- 77
2020-08-05 08:00:00 19.1 3 Sudeste 8 Sur 0 913.9 -- 83
2020-08-05 07:00:00 17.4 2 Este 5 Nordeste 0 913.7 -- 80
2020-08-05 06:00:00 16.2 3 Oeste 6 Oeste 0 913.6 -- 84
2020-08-05 05:00:00 16.3 5 Oeste 6 Oeste 0 913.7 -- 82
2020-08-05 04:00:00 18.3 2 Oeste 8 Sur 0 913.9 -- 83
2020-08-05 03:00:00 18.6 4 Sur 12 Sur 0 914.2 -- 82
2020-08-05 02:00:00 19.1 6 Sur 13 Sur 0 914.6 -- 80
2020-08-05 01:00:00 19.9 3 Sudeste 9 Sudeste 0 914.5 -- 76
2020-08-05 00:00:00 20.6 3 Sudeste 11 Este 0 914.3 -- 72
2020-08-04 23:00:00 21.5 6 Este 19 Nordeste 0 914.2 -- 68
2020-08-04 22:00:00 23 5 Este 21 Nordeste 0 913.5 -- 61
2020-08-04 21:00:00 25.8 6 Nordeste 23 Nordeste 0 912.8 -- 45
2020-08-04 20:00:00 30 6 Norte 22 Noroeste 0 912.1 -- 17
2020-08-04 19:00:00 30.7 9 Noroeste 24 Noroeste 0 911.8 -- 17
2020-08-04 18:00:00 30.7 10 Noroeste 20 Noroeste 0 912.1 -- 18
2020-08-04 17:00:00 30.3 9 Oeste 22 Noroeste 0 912.4 -- 18
2020-08-04 16:00:00 29.6 6 Norte 19 Noroeste 0 912.9 -- 18
2020-08-04 15:00:00 28.9 8 Oeste 19 Oeste 0 913.5 -- 20
2020-08-04 14:00:00 27.1 6 Sudeste 17 Sur 0 914.3 -- 26
2020-08-04 13:00:00 25.1 7 Sudoeste 13 Sur 0 915 -- 34
2020-08-04 12:00:00 23.7 6 Este 13 Este 0 915.2 -- 41
2020-08-04 11:00:00 20.9 4 Sur 10 Sudoeste 0 915.5 -- 48
2020-08-04 10:00:00 18.6 4 Sur 9 Nordeste 0 915.8 -- 53
2020-08-04 09:00:00 15.6 3 Norte 6 Noroeste 0 916 -- 64
2020-08-04 08:00:00 12 4 Norte 10 Norte 0 915.8 -- 76
2020-08-04 07:00:00 11.8 5 Norte 8 Norte 0 915.8 -- 78
2020-08-04 06:00:00 12.8 0 Calma 8 Noroeste 0 915.5 -- 74
2020-08-04 05:00:00 14.2 4 Oeste 10 Noroeste 0 915.4 -- 70
2020-08-04 04:00:00 15.2 5 Noroeste 14 Noroeste 0 915.6 -- 65
2020-08-04 03:00:00 15.7 4 Oeste 15 Noroeste 0 915.9 -- 64
2020-08-04 02:00:00 16.7 6 Noroeste 19 Noroeste 0 915.8 -- 61
2020-08-04 01:00:00 17.6 9 Noroeste 23 Noroeste 0 915.5 -- 58
2020-08-04 00:00:00 19.3 14 Noroeste 25 Oeste 0 914.9 -- 51
2020-08-03 23:00:00 20.4 9 Oeste 14 Oeste 0 914.3 -- 47
2020-08-03 22:00:00 22.7 3 Noroeste 15 Norte 0 913.1 -- 28
2020-08-03 21:00:00 24.9 8 Nordeste 21 Nordeste 0 912.3 -- 28
2020-08-03 20:00:00 28 10 Nordeste 25 Nordeste 0 911.8 -- 24
2020-08-03 19:00:00 29.2 8 Nordeste 25 Nordeste 0 911.8 -- 24
2020-08-03 18:00:00 29.9 10 Norte 25 Norte 0 911.7 -- 22
2020-08-03 17:00:00 29.7 9 Noroeste 22 Noroeste 0 912 -- 22
2020-08-03 16:00:00 29.8 9 Norte 31 Noroeste 0 912.3 -- 23
2020-08-03 15:00:00 29.1 10 Norte 28 Noroeste 0 913 -- 21
2020-08-03 14:00:00 27.8 10 Oeste 22 Oeste 0 913.5 -- 25
2020-08-03 13:00:00 26.2 7 Noroeste 22 Nordeste 0 914 -- 30
2020-08-03 12:00:00 24.6 8 Oeste 18 Oeste 0 914.5 -- 32
2020-08-03 11:00:00 22.7 6 Este 14 Norte 0 914.9 -- 33
2020-08-03 10:00:00 20.2 6 Oeste 15 Nordeste 0 915 -- 41
2020-08-03 09:00:00 18.5 7 Norte 21 Noroeste 0 914.9 -- 42
2020-08-03 08:00:00 15.7 9 Noroeste 24 Noroeste 0 914.4 -- 64
2020-08-03 07:00:00 15.7 8 Oeste 18 Oeste 0 914.2 -- 68
2020-08-03 06:00:00 16 8 Noroeste 21 Noroeste 0 914.7 -- 68
2020-08-03 05:00:00 16.6 8 Noroeste 22 Noroeste 0 914.8 -- 66
2020-08-03 04:00:00 16.9 9 Noroeste 26 Oeste 0 914.8 -- 65
2020-08-03 03:00:00 17.2 10 Noroeste 23 Noroeste 0 914.9 -- 64
2020-08-03 02:00:00 18.3 9 Noroeste 26 Noroeste 0 915.4 -- 61
2020-08-03 01:00:00 18.4 10 Noroeste 26 Oeste 0 915.3 -- 61
2020-08-03 00:00:00 19.2 11 Oeste 29 Noroeste 0 914.8 -- 59
2020-08-02 23:00:00 22 8 Noroeste 23 Noroeste 0 914.5 -- 51
2020-08-02 22:00:00 23.9 9 Nordeste 27 Nordeste 0 913.4 -- 47
2020-08-02 21:00:00 26.1 11 Nordeste 23 Nordeste 0 912.9 -- 43
2020-08-02 20:00:00 29.1 11 Nordeste 34 Nordeste 0 912.5 -- 38
2020-08-02 19:00:00 31.7 14 Nordeste 35 Noroeste 0 911.9 -- 33
2020-08-02 18:00:00 36.6 9 Oeste 25 Oeste 0 911.8 -- 16
2020-08-02 17:00:00 36.1 10 Noroeste 24 Noroeste 0 912 -- 18
2020-08-02 16:00:00 35.4 9 Noroeste 22 Norte 0 912.5 -- 18
2020-08-02 15:00:00 34.7 9 Noroeste 19 Norte 0 913.1 -- 22
2020-08-02 14:00:00 33.3 5 Nordeste 13 Sudeste 0 914 -- 25
2020-08-02 13:00:00 29.7 5 Nordeste 11 Nordeste 0 914.9 -- 35
2020-08-02 12:00:00 27.1 4 Sudoeste 9 Oeste 0 915.6 -- 42
2020-08-02 11:00:00 24 3 Sudeste 8 Sur 0 916.1 -- 53
2020-08-02 10:00:00 20.9 4 Oeste 9 Oeste 0 916.5 -- 62
2020-08-02 09:00:00 18 3 Sur 4 Sur 0 916.7 -- 73
2020-08-02 08:00:00 14.4 0 Calma 4 Noroeste 0 916.8 -- 85
2020-08-02 07:00:00 14.2 2 Oeste 5 Norte 0 916.8 -- 85
2020-08-02 06:00:00 15.4 2 Oeste 7 Oeste 0 916.5 -- 82
2020-08-02 05:00:00 16.1 5 Noroeste 7 Noroeste 0 916.6 -- 79
2020-08-02 04:00:00 16.8 3 Norte 13 Oeste 0 916.5 -- 80
2020-08-02 03:00:00 17.6 6 Oeste 11 Oeste 0 916.8 -- 76
2020-08-02 02:00:00 18.6 6 Oeste 14 Oeste 0 916.9 -- 72
2020-08-02 01:00:00 20.1 7 Oeste 16 Oeste 0 916.9 -- 66
2020-08-02 00:00:00 21.5 9 Oeste 22 Noroeste 0 916.5 -- 60
2020-08-01 23:00:00 24.2 7 Oeste 17 Oeste 0 915.9 -- 51
2020-08-01 22:00:00 28.6 7 Noroeste 14 Noroeste 0 915.1 -- 21
2020-08-01 21:00:00 31.8 8 Oeste 22 Oeste 0 914.6 -- 9
2020-08-01 20:00:00 35.5 11 Oeste 27 Oeste 0 914.4 -- 8
2020-08-01 19:00:00 36.3 17 Oeste 36 Oeste 0 914.4 -- 7
2020-08-01 18:00:00 37.5 12 Oeste 34 Oeste 0 914.7 -- 5
2020-08-01 17:00:00 37.3 17 Oeste 37 Noroeste 0 914.9 -- 5
2020-08-01 16:00:00 37.2 15 Sudoeste 44 Oeste 0 915 -- 8
2020-08-01 15:00:00 37 17 Oeste 43 Oeste 0 915.2 -- 7
2020-08-01 14:00:00 36.3 15 Oeste 35 Oeste 0 915.7 -- 10
2020-08-01 13:00:00 35 14 Oeste 35 Oeste 0 916.1 -- 12
2020-08-01 12:00:00 33.1 5 Este 11 Este 0 916.4 -- 25
2020-08-01 11:00:00 29.1 3 Este 5 Este 0 916.7 -- 37
2020-08-01 10:00:00 24.9 3 Este 6 Este 0 917 -- 52
2020-08-01 09:00:00 20.5 2 Oeste 4 Oeste 0 917.1 -- 70
2020-08-01 08:00:00 17.4 2 Noroeste 6 Norte 0 917 -- 75
2020-08-01 07:00:00 17.1 2 Noroeste 5 Norte 0 916.8 -- 76
2020-08-01 06:00:00 17.8 2 Noroeste 7 Oeste 0 916.6 -- 73
2020-08-01 05:00:00 18 4 Oeste 8 Oeste 0 916.5 -- 72
2020-08-01 04:00:00 19.1 0 Calma 3 Oeste 0 916.7 -- 73
2020-08-01 03:00:00 20.1 2 Sudoeste 7 Oeste 0 917 -- 70
2020-08-01 02:00:00 21.2 4 Oeste 7 Oeste 0 916.9 -- 68
2020-08-01 01:00:00 23.1 3 Este 5 Este 0 917.3 -- 61
2020-08-01 00:00:00 25.1 3 Oeste 9 Sur 0 917 -- 57
2020-07-31 23:00:00 27.5 3 Sur 22 Este 0 916.5 -- 48
2020-07-31 22:00:00 28.7 7 Sudeste 24 Sudeste 0 916 -- 47
2020-07-31 21:00:00 31.6 9 Este 23 Este 0 915.2 -- 40
2020-07-31 20:00:00 37.3 8 Oeste 25 Oeste 0 914.3 -- 15
2020-07-31 19:00:00 38.1 12 Oeste 26 Oeste 0 913.8 -- 13
2020-07-31 18:00:00 38.6 7 Noroeste 19 Sur 0 914.1 -- 13
2020-07-31 17:00:00 38.8 6 Sudoeste 28 Sur 0 914.4 -- 15
2020-07-31 16:00:00 38.3 14 Sur 31 Sudoeste 0 914.9 -- 19
2020-07-31 15:00:00 37.8 10 Sur 29 Sur 0 915.1 -- 19
2020-07-31 14:00:00 37.1 9 Sur 28 Sudoeste 0 915.4 -- 21
2020-07-31 13:00:00 35.6 8 Sur 24 Sur 0 915.8 -- 25
2020-07-31 12:00:00 33.6 11 Sur 23 Sur 0 916.3 -- 26
2020-07-31 11:00:00 30.6 4 Sudeste 13 Sur 0 916.6 -- 29
2020-07-31 10:00:00 27.6 4 Sudeste 11 Sur 0 916.7 -- 36
2020-07-31 09:00:00 24.1 3 Sudeste 8 Sudeste 0 916.7 -- 47
2020-07-31 08:00:00 19.9 3 Sudeste 9 Este 0 916.2 -- 53
2020-07-31 07:00:00 18.1 4 Nordeste 14 Sudeste 0 916 -- 54
2020-07-31 06:00:00 19 3 Noroeste 6 Nordeste 0 915.6 -- 57
2020-07-31 05:00:00 20.8 6 Norte 9 Norte 0 915.2 -- 44
2020-07-31 04:00:00 23.4 2 Norte 9 Norte 0 915.1 -- 37
2020-07-31 03:00:00 25.4 3 Nordeste 26 Sur 0 915.6 -- 34
2020-07-31 02:00:00 23.3 7 Sur 15 Sudeste 0 917.1 -- 37
2020-07-31 01:00:00 23.2 4 Oeste 10 Sur 0 916.1 -- 35
2020-07-31 00:00:00 25.5 5 Oeste 24 Sur 0 915.7 -- 30
2020-07-30 23:00:00 27.1 10 Sudeste 39 Este 0 916.1 -- 27
2020-07-30 22:00:00 27.6 12 Sur 46 Sur 0 916.2 -- 36
2020-07-30 21:00:00 29.4 10 Sudeste 27 Este 0 915.5 -- 35
2020-07-30 20:00:00 31.9 9 Sur 32 Sudeste 0 915 -- 29
2020-07-30 19:00:00 34.5 10 Sudeste 31 Sur 0 913.9 -- 24
2020-07-30 18:00:00 35.5 14 Este 50 Este 0 913.8 -- 22
2020-07-30 17:00:00 36.4 13 Este 38 Este 0 914 -- 23
2020-07-30 16:00:00 37.1 12 Este 32 Este 0 914 -- 20
2020-07-30 15:00:00 36.7 12 Este 26 Este 0 914.6 -- 22
2020-07-30 14:00:00 36.5 7 Sudeste 21 Sur 0 915.3 -- 22
2020-07-30 13:00:00 35.1 6 Este 17 Sudeste 0 915.8 -- 22
2020-07-30 12:00:00 31.6 5 Sur 10 Sur 0 916.3 -- 32
2020-07-30 11:00:00 28.2 5 Sudeste 9 Este 0 916.5 -- 37
2020-07-30 10:00:00 24.4 3 Norte 6 Sur 0 916.7 -- 55
2020-07-30 09:00:00 20.5 2 Oeste 7 Este 0 916.8 -- 67
2020-07-30 08:00:00 16.8 2 Norte 5 Norte 0 916.5 -- 80
2020-07-30 07:00:00 17 3 Nordeste 6 Nordeste 0 916.3 -- 82
2020-07-30 06:00:00 18.2 0 Calma 6 Sudeste 0 916.4 -- 76
2020-07-30 05:00:00 18.7 3 Sudeste 8 Este 0 916.2 -- 75
2020-07-30 04:00:00 18.2 3 Sudeste 7 Sudeste 0 915.8 -- 76
2020-07-30 03:00:00 19.1 3 Oeste 4 Oeste 0 916 -- 73
2020-07-30 02:00:00 20.4 5 Oeste 7 Oeste 0 916.4 -- 68
2020-07-30 01:00:00 22.2 4 Este 10 Sur 0 916.7 -- 62
2020-07-30 00:00:00 23.6 3 Este 18 Sudeste 0 916.5 -- 59
2020-07-29 23:00:00 24.9 9 Sur 22 Sur 0 916.3 -- 52
2020-07-29 22:00:00 26.1 6 Sudeste 20 Este 0 915.3 -- 50
2020-07-29 21:00:00 28.1 6 Sudeste 28 Sudeste 0 914.7 -- 43
2020-07-29 20:00:00 31.9 8 Sudeste 27 Sur 0 914.3 -- 35
2020-07-29 19:00:00 32.7 12 Este 31 Este 0 914 -- 33
2020-07-29 18:00:00 34.4 9 Sudeste 26 Este 0 914.1 -- 29
2020-07-29 17:00:00 35.2 12 Sudeste 30 Sudeste 0 914.3 -- 26
2020-07-29 16:00:00 34.9 10 Este 28 Nordeste 0 914.6 -- 26
2020-07-29 15:00:00 34.8 11 Este 27 Sudeste 0 914.9 -- 26
2020-07-29 14:00:00 33.6 10 Este 31 Este 0 915.4 -- 26
2020-07-29 13:00:00 32.7 8 Sudeste 21 Este 0 915.7 -- 26
2020-07-29 12:00:00 31.3 7 Sudeste 22 Sur 0 916.1 -- 28
2020-07-29 11:00:00 28.5 7 Sur 16 Sudeste 0 916.2 -- 27
2020-07-29 10:00:00 24.6 3 Sudoeste 8 Nordeste 0 916.2 -- 40
2020-07-29 09:00:00 20.1 2 Oeste 9 Nordeste 0 916 -- 60
2020-07-29 08:00:00 16.4 2 Noroeste 5 Oeste 0 915.8 -- 74
2020-07-29 07:00:00 16.7 3 Noroeste 4 Oeste 0 915.4 -- 72
2020-07-29 06:00:00 17.8 0 Calma 6 Sudoeste 0 915.2 -- 70
2020-07-29 05:00:00 18.6 2 Noroeste 6 Norte 0 915 -- 65
2020-07-29 04:00:00 19.5 2 Noroeste 8 Oeste 0 915.3 -- 62
2020-07-29 03:00:00 20.5 0 Calma 5 Oeste 0 915.5 -- 57
2020-07-29 02:00:00 21.8 3 Oeste 6 Norte 0 915.7 -- 54
2020-07-29 01:00:00 22.7 3 Norte 8 Nordeste 0 915.8 -- 49
2020-07-29 00:00:00 23.9 3 Sur 13 Este 0 915.7 -- 46
2020-07-28 23:00:00 25.4 4 Sudeste 21 Sudeste 0 915.3 -- 42
2020-07-28 22:00:00 26.9 6 Sudeste 23 Sudeste 0 914.6 -- 38
2020-07-28 21:00:00 28.7 7 Sudeste 31 Este 0 914 -- 35
2020-07-28 20:00:00 30.6 10 Sudeste 30 Este 0 913.7 -- 30
2020-07-28 19:00:00 34.3 9 Sudeste 29 Este 0 913.4 -- 23
2020-07-28 18:00:00 36.3 11 Sudoeste 26 Sur 0 -- -- 17
2020-07-28 17:00:00 36.5 13 Sur 33 Sudoeste 0 -- -- 16
2020-07-28 16:00:00 36.6 17 Sudoeste 35 Sudoeste 0 -- -- 15
2020-07-28 15:00:00 36.5 15 Sur 35 Sur 0 914 -- 18
2020-07-28 14:00:00 36 9 Sudeste 33 Sur 0 914.2 -- 23
2020-07-28 13:00:00 34.9 6 Sur 22 Sur 0 914.8 -- 24
2020-07-28 12:00:00 33.8 6 Sur 19 Sur 0 915.2 -- 23
2020-07-28 11:00:00 30.9 4 Sudeste 9 Sur 0 915.2 -- 30
2020-07-28 10:00:00 27.2 3 Este 5 Este 0 915.2 -- 35
2020-07-28 09:00:00 21.9 2 Nordeste 5 Norte 0 915.5 -- 64
2020-07-28 08:00:00 17.3 4 Oeste 6 Sudoeste 0 915.6 -- 73
2020-07-28 07:00:00 17.3 0 Calma 6 Nordeste 0 915.4 -- 72
2020-07-28 06:00:00 18.1 2 Norte 7 Oeste 0 915.2 -- 71
2020-07-28 05:00:00 18.4 4 Oeste 7 Oeste 0 915.5 -- 72
2020-07-28 04:00:00 20.5 2 Noroeste 5 Nordeste 0 915.7 -- 59
2020-07-28 03:00:00 22.2 0 Calma 5 Este 0 916 -- 55
2020-07-28 02:00:00 24 4 Este 5 Sur 0 916.4 -- 49
2020-07-28 01:00:00 25.5 6 Sur 16 Sur 0 916.6 -- 45
2020-07-28 00:00:00 26.3 9 Sur 17 Sur 0 916.4 -- 44
2020-07-27 23:00:00 27.7 5 Sudeste 19 Sur 0 916 -- 41
2020-07-27 22:00:00 29.5 6 Sur 18 Sur 0 915.6 -- 38
2020-07-27 21:00:00 32 10 Sur 22 Sudeste 0 914.7 -- 33
2020-07-27 20:00:00 36.4 11 Sur 28 Sur 0 914.1 -- 23
2020-07-27 19:00:00 37.7 14 Sur 32 Sur 0 914 -- 18
2020-07-27 18:00:00 38.3 14 Sur 33 Sur 0 914.4 -- 18
2020-07-27 17:00:00 38.6 18 Sur 33 Sur 0 914.8 -- 17
2020-07-27 16:00:00 38 18 Sur 32 Sur 0 915.3 -- 16
2020-07-27 15:00:00 37.5 14 Sur 33 Sudeste 0 915.6 -- 17
2020-07-27 14:00:00 36.2 18 Sur 37 Sur 0 916.2 -- 19
2020-07-27 13:00:00 34.7 16 Sur 35 Sur 0 916.7 -- 22
2020-07-27 12:00:00 32.6 16 Sur 32 Sur 0 917 -- 24
2020-07-27 09:00:00 21 4 Este 6 Nordeste 0 917.3 0.5 70
2020-07-27 08:00:00 16.8 3 Nordeste 5 Este 0 917.2 0.5 87
2020-07-27 07:00:00 16.9 3 Este 9 Este 0 917.1 0.4 86
2020-07-27 06:00:00 17.3 3 Este 8 Este 0 916.8 0 85
2020-07-27 05:00:00 18.5 0 Calma 6 Sur 0 916.7 -0.3 81
2020-07-27 04:00:00 19.7 3 Sudeste 11 Sudeste 0 916.7 -0.4 79
2020-07-27 03:00:00 20.3 4 Sudeste 11 Sudeste 0 916.8 -0.2 77
2020-07-27 02:00:00 21.4 3 Este 6 Sudeste 0 917 0.5 71
2020-07-27 01:00:00 22 3 Este 7 Este 0 917.1 1.6 67
2020-07-27 00:00:00 23.1 2 Este 8 Sur 0 917 2.6 62
2020-07-26 23:00:00 24.4 3 Sur 19 Este 0 916.5 3.2 59
2020-07-26 22:00:00 25.2 5 Sudeste 30 Sudeste 0 915.5 2.5 59
2020-07-26 21:00:00 27.5 8 Este 28 Este 0 914.4 1.2 52
2020-07-26 20:00:00 30.5 12 Este 26 Este 0 913.3 -0.1 45
2020-07-26 19:00:00 32.4 10 Este 28 Este 0 913 -0.5 41
2020-07-26 18:00:00 34.9 13 Este 28 Sudeste 0 913.2 -0.7 33
2020-07-26 17:00:00 38.2 12 Sudoeste 24 Oeste 0 913.4 -1.1 15
2020-07-26 16:00:00 36.8 4 Este 17 Sudoeste 0 913.5 -1.6 20
2020-07-26 15:00:00 35.8 13 Sur 27 Sudoeste 0 913.9 -1.6 19
2020-07-26 14:00:00 35.7 5 Sur 14 Sur 0 914.5 -1.1 23
2020-07-26 13:00:00 32.2 3 Sur 13 Sur 0 915.1 -0.6 34
2020-07-26 12:00:00 29.7 5 Oeste 15 Oeste 0 915.5 0.1 39
2020-07-26 11:00:00 27.1 4 Noroeste 11 Sudoeste 0 915.6 0.4 48
2020-07-26 10:00:00 23.3 4 Sudoeste 8 Oeste 0 915.7 -- 65
2020-07-26 09:00:00 20.5 0 Calma 5 Norte 0 915.4 -- 71
2020-07-26 08:00:00 17.2 2 Oeste 6 Noroeste 0 915.2 -- 87
2020-07-26 07:00:00 16.7 4 Oeste 7 Oeste 0 914.8 -- 88
2020-07-26 06:00:00 17.7 0 Calma 7 Sudoeste 0 914.3 -- 86
2020-07-26 05:00:00 18.4 4 Oeste 12 Nordeste 0 914.1 -- 82
2020-07-26 04:00:00 19.2 4 Norte 6 Norte 0 914.2 -- 80
2020-07-26 03:00:00 20.1 3 Sudeste 10 Sur 0 914.1 -- 77
2020-07-26 02:00:00 20.4 3 Nordeste 6 Norte 0 914.4 -- 76
2020-07-26 01:00:00 22 3 Sudeste 5 Sur 0 914.5 -- 70
2020-07-26 00:00:00 22.9 3 Sur 14 Este 0 914.5 -- 66
2020-07-25 23:00:00 23.7 5 Sudeste 16 Sudeste 0 914.2 -- 64
2020-07-25 22:00:00 25.1 8 Sur 24 Sudeste 0 913.3 -- 59
2020-07-25 21:00:00 27.1 9 Este 27 Sudeste 0 912.3 -- 51
2020-07-25 20:00:00 30.3 8 Este 27 Sudeste 0 911.8 -- 44
2020-07-25 19:00:00 32 10 Este 26 Sudeste 0 -- -- 40
2020-07-25 18:00:00 35.4 8 Sudoeste 25 Oeste 0 -- -- 20
2020-07-25 17:00:00 36.3 12 Sur 33 Sudoeste 0 912.1 -- 21
2020-07-25 16:00:00 35.6 14 Sudoeste 40 Sur 0 912.5 -- 22
2020-07-25 15:00:00 33.8 13 Sur 31 Sudoeste 0 912.8 -- 25
2020-07-25 14:00:00 33 13 Sur 30 Sur 0 913.8 -- 28
2020-07-25 13:00:00 30.8 11 Sur 20 Sur 0 914.6 -- 34
2020-07-25 12:00:00 28.1 5 Sudeste 14 Sur 0 915.1 -- 41
2020-07-25 11:00:00 25.4 4 Sudeste 9 Sur 0 915.5 -- 44
2020-07-25 10:00:00 21.7 3 Sur 11 Este 0 915.7 -- 54
2020-07-25 09:00:00 18.8 2 Sur 5 Oeste 0 915.6 -- 62
2020-07-25 08:00:00 15.3 2 Noroeste 6 Noroeste 0 915.4 -- 75
2020-07-25 07:00:00 15.2 3 Norte 5 Oeste 0 915.2 -- 74
2020-07-25 06:00:00 16.3 2 Noroeste 6 Noroeste 0 915.2 -- 69
2020-07-25 05:00:00 17.3 3 Oeste 6 Oeste 0 915 -- 65
2020-07-25 04:00:00 18 2 Noroeste 8 Oeste 0 915 -- 63
2020-07-25 03:00:00 19.1 4 Oeste 8 Noroeste 0 -- -- 59
2020-07-25 02:00:00 19.6 5 Noroeste 8 Noroeste 0 915.4 -- 60
2020-07-25 01:00:00 20.9 4 Oeste 9 Oeste 0 -- -- 55
2020-07-25 00:00:00 22.3 2 Nordeste 17 Este 0 -- -- 48
2020-07-24 23:00:00 23.2 4 Sudeste 17 Sudeste 0 -- -- 48
2020-07-24 22:00:00 24.8 4 Sudeste 17 Sur 0 -- -- 46
2020-07-24 21:00:00 26.5 8 Sudeste 21 Sur 0 -- -- 43
2020-07-24 20:00:00 28.8 7 Este 24 Este 0 912.8 -- 40
2020-07-24 19:00:00 29.7 12 Este 29 Este 0 912.4 -- 36
2020-07-24 18:00:00 32.9 3 Sudeste 11 Sudeste 0 912.3 -- 25
2020-07-24 17:00:00 33.6 5 Oeste 17 Sur 0 912.4 -- 22
2020-07-24 16:00:00 34.1 8 Sur 20 Sur 0 912.9 -- 24
2020-07-24 15:00:00 34 8 Sudeste 19 Sudeste 0 913.2 -- 24
2020-07-24 14:00:00 32.7 5 Oeste 13 Sur 0 913.7 -- 25
2020-07-24 13:00:00 31 5 Sur 12 Sur 0 914.2 -- 30
2020-07-24 12:00:00 27.7 4 Sudoeste 13 Oeste 0 914.7 -- 34
2020-07-24 11:00:00 24.4 8 Oeste 15 Sudoeste 0 915 -- 46
2020-07-24 10:00:00 21.8 3 Oeste 18 Noroeste 0 915.3 -- 56
2020-07-24 09:00:00 20 8 Noroeste 21 Noroeste 0 915 -- 61
2020-07-24 08:00:00 16.5 4 Noroeste 8 Oeste 0 914.5 -- 72
2020-07-24 07:00:00 16 3 Noroeste 6 Oeste 0 914.1 -- 70
2020-07-24 06:00:00 16.7 5 Oeste 6 Oeste 0 914 -- 65
2020-07-24 05:00:00 16.9 4 Norte 9 Oeste 0 914.1 -- 65
2020-07-24 04:00:00 17.4 4 Oeste 12 Oeste 0 914.1 -- 64
2020-07-24 03:00:00 17.8 2 Nordeste 9 Oeste 0 914.8 -- 62
2020-07-24 02:00:00 19.2 4 Oeste 11 Oeste 0 915 -- 59
2020-07-24 01:00:00 21.8 4 Norte 9 Este 0 915.3 -- 42
2020-07-24 00:00:00 23.8 3 Sudeste 11 Sur 0 915.2 -- 39
2020-07-23 23:00:00 25.4 6 Sur 20 Sudeste 0 914.7 -- 33
2020-07-23 22:00:00 26.7 5 Este 16 Sudeste 0 914.4 -- 32
2020-07-23 21:00:00 27.7 6 Sudeste 24 Sudeste 0 913.4 -- 31
2020-07-23 20:00:00 30.5 9 Sudeste 29 Este 0 912.9 -- 29
2020-07-23 19:00:00 35 4 Oeste 18 Oeste 0 912.7 -- 20
2020-07-23 18:00:00 34.8 4 Este 17 Noroeste 0 913.1 -- 18
2020-07-23 17:00:00 35.4 6 Norte 17 Noroeste 0 913.6 -- 18
2020-07-23 16:00:00 34.6 5 Nordeste 17 Sur 0 914 -- 18
2020-07-23 15:00:00 33.8 5 Sur 15 Sudoeste 0 914.7 -- 18
2020-07-23 14:00:00 32.6 6 Sudoeste 15 Sur 0 915.4 -- 18
2020-07-23 13:00:00 31.1 5 Oeste 12 Sudeste 0 915.9 -- 18
2020-07-23 12:00:00 27.7 4 Sudoeste 8 Sur 0 916.3 -- 31
2020-07-23 11:00:00 23.8 3 Sur 9 Sudoeste 0 916.7 -- 33
2020-07-23 10:00:00 19.3 5 Sudoeste 9 Oeste 0 917 -- 48
2020-07-23 09:00:00 15.6 3 Oeste 5 Oeste 0 917.4 -- 62
2020-07-23 08:00:00 11.7 0 Calma 6 Norte 0 917.3 -- 78
2020-07-23 07:00:00 10.8 3 Noroeste 5 Sudoeste 0 917 -- 75
2020-07-23 06:00:00 11 2 Oeste 8 Oeste 0 917.1 -- 81
2020-07-23 05:00:00 11.3 5 Oeste 6 Oeste 0 917.1 -- 81
2020-07-23 04:00:00 12.4 2 Oeste 4 Oeste 0 917.5 -- 72
2020-07-23 03:00:00 13.4 0 Calma 4 Norte 0 917.7 -- 73
2020-07-23 02:00:00 14.6 3 Norte 4 Nordeste 0 918 -- 62
2020-07-23 01:00:00 16 3 Oeste 7 Oeste 0 918 -- 59
2020-07-23 00:00:00 17.9 5 Oeste 7 Oeste 0 917.9 -- 49
2020-07-22 23:00:00 20.1 3 Norte 7 Sur 0 917.9 -- 38
2020-07-22 22:00:00 22.4 6 Sur 17 Este 0 917.4 -- 34
2020-07-22 21:00:00 24.3 5 Este 24 Sudeste 0 917.3 -- 33
2020-07-22 20:00:00 26.5 8 Este 23 Este 0 916.9 -- 33
2020-07-22 19:00:00 27.4 7 Sudeste 21 Este 0 917 -- 33
2020-07-22 18:00:00 26 8 Sudeste 22 Sudeste 0 917.6 -- 30
2020-07-22 17:00:00 25.8 5 Este 18 Sur 0 917.8 -- 48
2020-07-22 16:00:00 23.2 5 Sudeste 23 Sudeste 0.2 918.2 -- 58
2020-07-22 15:00:00 24.7 9 Este 40 Sudeste 0 918.2 -- 39
2020-07-22 14:00:00 26.5 5 Sudeste 23 Este 0 917.7 -- 30
2020-07-22 13:00:00 23.8 6 Sudeste 24 Este 0.2 918.4 -- 39
2020-07-22 12:00:00 21.4 3 Norte 8 Este 0 918.9 -- 60
2020-07-22 11:00:00 18 5 Este 15 Oeste 0 919.2 -- 83
2020-07-22 10:00:00 16.7 8 Sudoeste 17 Sudoeste 0.4 919.5 -- 84
2020-07-22 09:00:00 15.5 4 Este 14 Sudoeste 0.2 919.2 -- 85
2020-07-22 08:00:00 15.7 3 Sudoeste 9 Oeste 0 918.4 -- 78
2020-07-22 07:00:00 15.4 5 Oeste 9 Oeste 0 917.7 -- 78
2020-07-22 06:00:00 16.6 3 Norte 9 Oeste 0 917.6 -- 73
2020-07-22 05:00:00 17.5 5 Oeste 18 Sudoeste 0 917.6 -- 71
2020-07-22 04:00:00 19.5 7 Oeste 22 Sudoeste 0 917.9 -- 58
2020-07-22 03:00:00 18.5 5 Nordeste 7 Nordeste 0 918.5 -- 63
2020-07-22 02:00:00 20.5 4 Este 12 Sur 0 918.3 -- 53
2020-07-22 01:00:00 21.7 3 Sur 13 Sur 0 918.4 -- 53
2020-07-22 00:00:00 22.4 6 Sur 24 Este 0 918.4 -- 52
2020-07-21 23:00:00 23.2 5 Sudeste 20 Sur 0 918.2 -- 52
2020-07-21 22:00:00 24.9 8 Sur 18 Sur 0 917.8 -- 40
2020-07-21 21:00:00 26.9 9 Sur 26 Este 0 917.8 -- 37
2020-07-21 20:00:00 29.3 9 Sudeste 34 Este 0 916.5 -- 33
2020-07-21 19:00:00 30.6 13 Este 40 Este 0 915.9 -- 35
2020-07-21 18:00:00 32.5 10 Sudeste 37 Sudeste 0 915.9 -- 35
2020-07-21 17:00:00 32.5 10 Sudeste 32 Sudeste 0 916.5 -- 34
2020-07-21 16:00:00 34.9 9 Sudeste 26 Sur 0 916.5 -- 22
2020-07-21 15:00:00 35.2 8 Sur 22 Sur 0 916.6 -- 22
2020-07-21 14:00:00 34.3 7 Sudoeste 18 Este 0 917.1 -- 26
2020-07-21 13:00:00 32.5 5 Este 15 Sur 0 917.4 -- 30
2020-07-21 12:00:00 30.1 3 Sudeste 10 Sudeste 0 917.8 -- 34
2020-07-21 11:00:00 27 4 Sudeste 8 Sudeste 0 918.2 -- 42
2020-07-21 10:00:00 23.7 3 Este 10 Este 0 918.4 -- 58
2020-07-21 09:00:00 20.2 4 Este 8 Este 0 918.4 -- 77
2020-07-21 08:00:00 17.3 2 Este 9 Sudeste 0 918.2 -- 91
2020-07-21 07:00:00 17.1 2 Este 9 Sudeste 0 917.7 -- 92
2020-07-21 06:00:00 17.1 3 Este 7 Este 0 917.5 -- 93
2020-07-21 05:00:00 17.6 3 Sudeste 11 Sur 0 917.5 -- 91
2020-07-21 04:00:00 18.1 3 Sudeste 11 Sur 0 917.5 -- 90
2020-07-21 03:00:00 19.2 3 Sudeste 10 Sur 0 917.6 -- 87
2020-07-21 02:00:00 19.9 7 Sur 13 Sur 0 917.9 -- 85
2020-07-21 01:00:00 20.8 5 Sur 15 Sur 0 917.8 -- 81
2020-07-21 00:00:00 22 6 Sur 16 Sur 0 917.7 -- 76
2020-07-20 23:00:00 22.8 6 Sur 20 Este 0 917.2 -- 73
2020-07-20 22:00:00 23.5 9 Sudeste 29 Sudeste 0 916.4 -- 72
2020-07-20 21:00:00 25.4 12 Este 31 Este 0 915.2 -- 66
2020-07-20 20:00:00 29 14 Este 33 Este 0 914.5 -- 55
2020-07-20 19:00:00 32.6 11 Sur 30 Sur 0 913.9 -- 39
2020-07-20 18:00:00 32.9 10 Este 32 Sudeste 0 914 -- 39
2020-07-20 17:00:00 35.5 10 Sur 34 Sur 0 914.2 -- 21
2020-07-20 16:00:00 35.8 12 Sur 30 Sur 0 914.4 -- 18
2020-07-20 15:00:00 35.3 12 Sur 30 Sur 0 914.6 -- 23
2020-07-20 14:00:00 33.9 8 Sudeste 22 Sur 0 914.9 -- 20
2020-07-20 13:00:00 31.9 9 Sur 19 Sudeste 0 915.4 -- 27
2020-07-20 12:00:00 29.7 8 Sur 22 Sur 0 915.7 -- 40
2020-07-20 11:00:00 26.6 7 Sur 20 Sur 0 915.9 -- 53
2020-07-20 10:00:00 23.1 5 Sur 11 Sur 0 915.9 -- 68
2020-07-20 09:00:00 20.1 0 Calma 6 Norte 0 915.5 -- 81
2020-07-20 08:00:00 17.3 0 Calma 5 Norte 0 915.3 -- 87
2020-07-20 07:00:00 17.2 3 Oeste 5 Oeste 0 914.8 -- 88
2020-07-20 06:00:00 16.8 2 Sudoeste 5 Oeste 0 914.5 -- 88
2020-07-20 05:00:00 17.7 2 Norte 6 Norte 0 914.4 -- 86
2020-07-20 04:00:00 18.7 2 Oeste 8 Norte 0 914.7 -- 83
2020-07-20 03:00:00 19.5 4 Norte 10 Sur 0 915 -- 81
2020-07-20 02:00:00 20.7 8 Sur 15 Sur 0 915.3 -- 78
2020-07-20 01:00:00 21.4 5 Sur 14 Sudeste 0 915.7 -- 74
2020-07-20 00:00:00 22 6 Este 14 Este 0 915.4 -- 75
2020-07-19 23:00:00 23.4 7 Sur 15 Sur 0 915.4 -- 69
2020-07-19 22:00:00 23.8 7 Sudeste 24 Sur 0 914.2 -- 70
2020-07-19 21:00:00 24.1 11 Este 34 Este 0.6 913.2 -- 75
2020-07-19 20:00:00 26.4 10 Este 22 Este 0 912.8 -- 60
2020-07-19 19:00:00 29.2 8 Este 30 Este 0 912.6 -- 55
2020-07-19 18:00:00 30.6 7 Este 26 Sur 0 912.7 -- 45
2020-07-19 17:00:00 33.2 9 Este 25 Sudeste 0 912.8 -- 31
2020-07-19 16:00:00 35.2 9 Sur 18 Sur 0 912.9 -- 25
2020-07-19 15:00:00 33.4 7 Sur 17 Sudoeste 0 913.3 -- 29
2020-07-19 14:00:00 34 5 Sudeste 18 Sur 0 913.7 -- 28
2020-07-19 13:00:00 32 6 Sur 21 Sur 0 914.1 -- 34
2020-07-19 12:00:00 29.1 8 Sudeste 22 Sur 0 914.6 -0.7 41
2020-07-19 11:00:00 26.5 10 Sur 19 Sur 0 915 -0.2 47
2020-07-19 10:00:00 23.7 7 Sur 14 Sur 0 915.1 -0.2 52
2020-07-19 09:00:00 20.4 4 Este 7 Este 0 915.3 0 75
2020-07-19 08:00:00 17.1 3 Este 6 Nordeste 0 915.2 -- 91
2020-07-19 07:00:00 17 3 Sudeste 6 Este 0 915.3 -- 91
2020-07-19 06:00:00 17.7 3 Sudeste 5 Sudeste 0 915.3 -- 90
2020-07-19 05:00:00 18 3 Sudeste 8 Este 0 915.4 -- 89
2020-07-19 04:00:00 18.9 3 Este 8 Sur 0 915.5 -- 86
2020-07-19 03:00:00 19.6 2 Sur 6 Sudoeste 0 915.7 -- 83
2020-07-19 02:00:00 20.5 4 Sur 9 Sur 0 916 -- 80
2020-07-19 01:00:00 21.4 4 Sur 9 Sudeste 0 915.9 -- 75
2020-07-19 00:00:00 22.3 4 Sudeste 11 Sur 0 915.9 -- 72
2020-07-18 23:00:00 23.4 6 Sudeste 15 Sur 0 915.3 -- 68
2020-07-18 22:00:00 24.5 8 Este 23 Este 0 914 -- 64
2020-07-18 21:00:00 26.8 7 Este 23 Este 0 913.2 -- 55
2020-07-18 20:00:00 30.3 9 Este 22 Este 0 912.5 -- 44
2020-07-18 19:00:00 32.1 2 Este 8 Este 0 912.2 -- 30
2020-07-18 18:00:00 34.2 4 Sudeste 19 Sudeste 0 912.4 -- 27
2020-07-18 17:00:00 33.3 9 Sudoeste 17 Oeste 0 912.8 -- 27
2020-07-18 16:00:00 32.8 5 Sur 14 Norte 0 913.2 -- 28
2020-07-18 15:00:00 31.5 5 Sur 16 Este 0 913.8 -- 29
2020-07-18 14:00:00 30.4 5 Este 20 Sur 0 914.3 -- 30
2020-07-18 13:00:00 28.9 8 Sur 25 Sur 0 914.7 -- 37
2020-07-18 12:00:00 26.8 13 Sur 26 Sur 0 915.2 -- 42
2020-07-18 11:00:00 24 6 Sur 18 Sur 0 915.5 -- 52
2020-07-18 10:00:00 21 3 Este 8 Este 0 916 -- 58
2020-07-18 09:00:00 17.6 3 Nordeste 6 Nordeste 0 916.1 -- 63
2020-07-18 08:00:00 13 4 Oeste 6 Oeste 0 916.1 -- 81
2020-07-18 07:00:00 12.8 0 Calma 5 Norte 0 916 -- 80
2020-07-18 06:00:00 13.6 0 Calma 5 Norte 0 915.9 -- 76
2020-07-18 05:00:00 14.6 0 Calma 4 Noroeste 0 916 -- 72
2020-07-18 04:00:00 15.2 3 Noroeste 8 Oeste 0 916.1 -- 69
2020-07-18 03:00:00 16.5 4 Oeste 8 Oeste 0 916.2 -- 64
2020-07-18 02:00:00 17.5 5 Noroeste 9 Oeste 0 916.3 -- 61
2020-07-18 01:00:00 19.4 0 Calma 15 Este 0 916.3 -- 72
2020-07-18 00:00:00 20.2 6 Este 18 Sudeste 0 916 -- 73
2020-07-17 23:00:00 21.8 4 Nordeste 13 Este 0 915.5 -- 51
2020-07-17 22:00:00 23.6 5 Este 15 Nordeste 0 914.8 -- 45
2020-07-17 21:00:00 25.9 8 Nordeste 23 Este 0 914.3 -- 29
2020-07-17 20:00:00 28.9 11 Nordeste 29 Este 0 913.9 -- 22
2020-07-17 19:00:00 30.7 8 Nordeste 25 Nordeste 0 913.5 -- 18
2020-07-17 18:00:00 31.3 8 Nordeste 20 Nordeste 0 913.5 -- 20
2020-07-17 17:00:00 31.5 6 Oeste 26 Noroeste 0 913.6 -- 23
2020-07-17 16:00:00 31.1 11 Norte 21 Noroeste 0 913.8 -- 24
2020-07-17 15:00:00 30.8 9 Noroeste 24 Noroeste 0 914.2 -- 24
2020-07-17 14:00:00 29 7 Sur 21 Sur 0 914.7 -- 29
2020-07-17 13:00:00 27.6 5 Este 10 Noroeste 0 915.4 -- 32
2020-07-17 12:00:00 25.8 5 Noroeste 14 Noroeste 0 915.8 -- 39
2020-07-17 11:00:00 23.1 4 Sudoeste 11 Nordeste 0 916.2 -- 36
2020-07-17 10:00:00 20.6 3 Sudoeste 6 Oeste 0 916.8 -- 44
2020-07-17 09:00:00 17 2 Oeste 4 Norte 0 916.9 -- 59
2020-07-17 08:00:00 13.7 2 Noroeste 6 Noroeste 0 917 -- 71
2020-07-17 07:00:00 13 0 Calma 6 Norte 0 916.8 -- 73
2020-07-17 06:00:00 14.2 3 Noroeste 8 Norte 0 916.6 -- 70
2020-07-17 05:00:00 14.7 2 Noroeste 6 Noroeste 0 916.5 -- 68
2020-07-17 04:00:00 16.2 4 Noroeste 8 Noroeste 0 916.7 -- 64
2020-07-17 03:00:00 17.3 0 Calma 9 Noroeste 0 916.9 -- 55
2020-07-17 02:00:00 18.7 5 Noroeste 10 Noroeste 0 917 -- 49
2020-07-17 01:00:00 20.1 4 Noroeste 10 Noroeste 0 917.1 -- 47
2020-07-17 00:00:00 21 5 Noroeste 9 Nordeste 0 917.1 -- 51
2020-07-16 23:00:00 22.5 4 Nordeste 13 Este 0 916.9 -- 67
2020-07-16 22:00:00 24 3 Este 20 Nordeste 0 916.4 -- 60
2020-07-16 21:00:00 26 11 Nordeste 28 Norte 0 916.1 -- 32
2020-07-16 20:00:00 28.9 13 Nordeste 30 Nordeste 0 915.6 -- 28
2020-07-16 19:00:00 30.3 13 Nordeste 26 Nordeste 0 915.2 -- 29
2020-07-16 18:00:00 32 6 Norte 22 Noroeste 0 915.3 -- 25
2020-07-16 17:00:00 31.6 5 Nordeste 19 Noroeste 0 915.6 -- 25
2020-07-16 16:00:00 30.8 10 Noroeste 24 Sudoeste 0 916 -- 25
2020-07-16 15:00:00 30.3 8 Oeste 19 Oeste 0 916.6 -- 27
2020-07-16 14:00:00 28.9 8 Oeste 18 Nordeste 0 917.4 -- 29
2020-07-16 13:00:00 26.9 6 Sudoeste 16 Sudoeste 0 918 -- 34
2020-07-16 12:00:00 25 4 Sur 8 Nordeste 0 918.4 -- 36
2020-07-16 11:00:00 22.1 4 Sudeste 10 Este 0 918.6 -- 36
2020-07-16 10:00:00 19.3 5 Este 9 Nordeste 0 918.9 -- 49
2020-07-16 09:00:00 16.2 2 Sur 5 Sudeste 0 918.6 -- 63
2020-07-16 08:00:00 13 2 Noroeste 5 Noroeste 0 918.6 -- 78
2020-07-16 07:00:00 12.1 0 Calma 4 Oeste 0 918.5 -- 81
2020-07-16 06:00:00 12.7 2 Noroeste 6 Oeste 0 918.5 -- 78
2020-07-16 05:00:00 13.5 5 Noroeste 6 Noroeste 0 918.4 -- 74
2020-07-16 04:00:00 14.4 3 Oeste 10 Norte 0 918.7 -- 71
2020-07-16 03:00:00 15.1 0 Calma 9 Noroeste 0 918.5 -- 68
2020-07-16 02:00:00 16.2 6 Oeste 20 Noroeste 0 918.6 -- 64
2020-07-16 01:00:00 17 7 Oeste 15 Norte 0 918.6 -- 63
2020-07-16 00:00:00 19 7 Noroeste 14 Noroeste 0 918 -- 54
2020-07-15 23:00:00 20.3 5 Norte 19 Nordeste 0 917.4 -- 52
2020-07-15 22:00:00 22.1 6 Nordeste 18 Este 0 916.6 -- 45
2020-07-15 21:00:00 24.1 9 Nordeste 24 Nordeste 0 915.9 -- 38
2020-07-15 20:00:00 27.4 8 Nordeste 27 Nordeste 0 915.5 -- 31
2020-07-15 19:00:00 28.8 9 Noroeste 26 Nordeste 0 915.1 -- 26
2020-07-15 18:00:00 29.1 7 Noroeste 19 Oeste 0 915.3 -- 27
2020-07-15 17:00:00 28.9 9 Oeste 19 Norte 0 915.6 -- 27
2020-07-15 16:00:00 28.6 5 Oeste 20 Norte 0 915.8 -- 28
2020-07-15 15:00:00 27.4 5 Este 15 Noroeste 0 916.1 -- 33
2020-07-15 14:00:00 25.7 7 Sur 18 Oeste 0 916.7 -- 31
2020-07-15 13:00:00 24.3 8 Sudoeste 19 Sudoeste 0 917.2 -- 30
2020-07-15 12:00:00 22.4 6 Noroeste 14 Noroeste 0 917.5 -- 29
2020-07-15 11:00:00 20.4 4 Sur 8 Sudoeste 0 917.6 -- 36
2020-07-15 10:00:00 17.3 3 Sur 8 Sudeste 0 917.5 -- 49
2020-07-15 09:00:00 14.4 3 Sur 7 Oeste 0 917.5 -- 56
2020-07-15 08:00:00 11.6 4 Oeste 7 Oeste 0 917 -- 66
2020-07-15 07:00:00 11.2 3 Noroeste 8 Oeste 0 916.6 -- 67
2020-07-15 06:00:00 11.6 4 Oeste 8 Oeste 0 916.2 -- 67
2020-07-15 05:00:00 12 2 Norte 12 Oeste 0 915.8 -- 71
2020-07-15 04:00:00 13.3 4 Oeste 9 Oeste 0 916.1 -- 72
2020-07-15 03:00:00 14.3 5 Noroeste 14 Oeste 0 916 -- 77
2020-07-15 02:00:00 15.4 7 Oeste 11 Noroeste 0 915.9 -- 92
2020-07-15 01:00:00 16.3 3 Norte 6 Noroeste 0 915.9 -- 89
2020-07-15 00:00:00 17.2 3 Sudoeste 8 Sur 0 915.9 -- 87
2020-07-14 23:00:00 17.5 3 Sudeste 10 Sur 0 915.7 -- 86
2020-07-14 22:00:00 18.6 7 Sur 16 Sur 0 915 -- 81
2020-07-14 21:00:00 20.8 8 Sur 16 Sur 0 914.5 -- 72
2020-07-14 20:00:00 23.3 8 Sur 16 Sur 0 914.4 -- 60
2020-07-14 19:00:00 23.6 6 Sur 23 Sur 0 914.1 -- 58
2020-07-14 18:00:00 22.1 10 Sur 21 Sudeste 0 914.1 -- 61
2020-07-14 17:00:00 20.8 6 Sudeste 26 Este 0 913.8 -- 63
2020-07-14 16:00:00 21.9 8 Este 26 Este 0 914 -- 62
2020-07-14 15:00:00 24.2 3 Nordeste 16 Sur 0 913.5 -- 50
2020-07-14 14:00:00 26.1 7 Sudoeste 19 Sur 0 914.6 -- 42
2020-07-14 13:00:00 25.1 4 Este 9 Sudeste 0 915.3 -- 44
2020-07-14 12:00:00 23.8 4 Oeste 11 Oeste 0 915.9 -- 35
2020-07-14 11:00:00 21.6 4 Sudoeste 9 Oeste 0 916.3 -- 32
2020-07-14 10:00:00 19.6 4 Sudoeste 14 Sudoeste 0 916.9 -- 37
2020-07-14 09:00:00 17.5 4 Sudoeste 8 Sudoeste 0 916.9 -- 47
2020-07-14 08:00:00 15 6 Oeste 9 Oeste 0 917.1 -- 64
2020-07-14 07:00:00 15.8 4 Oeste 10 Noroeste 0 917.1 -- 57
2020-07-14 06:00:00 16 4 Oeste 10 Oeste 0 917 -- 57
2020-07-14 05:00:00 16.5 5 Oeste 10 Oeste 0 917.1 -- 58
2020-07-14 04:00:00 17.6 4 Oeste 17 Noroeste 0 917.6 -- 55
2020-07-14 03:00:00 17.9 6 Noroeste 13 Noroeste 0 917.9 -- 55
2020-07-14 02:00:00 18.6 6 Oeste 14 Noroeste 0 917.9 -- 58
2020-07-14 01:00:00 19.8 4 Noroeste 8 Sudoeste 0 918.2 -- 70
2020-07-14 00:00:00 20 0 Calma 10 Oeste 0 918.1 -- 72
2020-07-13 23:00:00 21.4 4 Sudoeste 8 Sur 0 918 -- 67
2020-07-13 22:00:00 22.6 7 Sur 20 Sudoeste 0 917.6 2.1 61
2020-07-13 21:00:00 23.9 8 Sudeste 29 Este 0 916.5 0.9 63
2020-07-13 20:00:00 25.9 13 Este 28 Este 0 915.8 -0.4 56
2020-07-13 19:00:00 28.2 7 Nordeste 19 Nordeste 0 915.5 -1.2 42
2020-07-13 18:00:00 30 5 Nordeste 10 Oeste 0 915.6 -1.7 37
2020-07-13 17:00:00 30.2 3 Norte 17 Sudoeste 0 916.2 -1.7 32
2020-07-13 16:00:00 31.5 4 Oeste 16 Sudoeste 0 916.7 -1.6 30
2020-07-13 15:00:00 30.8 4 Sudeste 15 Este 0 917.3 -1.4 37
2020-07-13 14:00:00 28.9 4 Sudeste 10 Este 0 917.9 -1 33
2020-07-13 13:00:00 27.6 3 Nordeste 9 Nordeste 0 918.3 -0.8 43
2020-07-13 12:00:00 26.2 3 Sur 9 Noroeste 0 918.7 -0.5 55
2020-07-13 11:00:00 23.1 3 Noroeste 10 Noroeste 0 918.9 -0.1 62
2020-07-13 10:00:00 20.7 3 Nordeste 9 Norte 0.2 919.1 0.5 70
2020-07-13 09:00:00 17.8 2 Sudoeste 4 Sur 0 919.2 1.1 81
2020-07-13 08:00:00 15.9 0 Calma 4 Sudoeste 0 919 1.2 87
2020-07-13 07:00:00 15.6 2 Oeste 6 Oeste 0 918.6 -- 90
2020-07-13 06:00:00 16.2 3 Sudoeste 6 Oeste 0 918.1 -0.2 92
2020-07-13 05:00:00 16.9 2 Oeste 4 Sur 0 917.8 -0.6 92
2020-07-13 04:00:00 16.9 3 Sudeste 7 Oeste 0 918.1 -0.8 94
2020-07-13 03:00:00 17.2 2 Sudoeste 9 Oeste 0 918.3 -0.8 92
2020-07-13 02:00:00 17.8 3 Norte 10 Sur 0 918.4 0.2 91
2020-07-13 01:00:00 18.6 4 Sur 9 Sudoeste 0 918.9 1.6 88
2020-07-13 00:00:00 18.8 2 Sudeste 7 Oeste 0 919.1 1.4 89
2020-07-12 23:00:00 19.3 4 Noroeste 9 Sudeste 0 918.2 1.8 85
2020-07-12 22:00:00 20.1 4 Este 9 Sur 0 917.3 -0.5 83
2020-07-12 21:00:00 21.3 3 Sudeste 22 Oeste 0 917.7 -0.5 76
2020-07-12 20:00:00 20.9 10 Oeste 26 Nordeste 0 916.4 -1 80
2020-07-12 19:00:00 20.8 8 Sudoeste 14 Oeste 0 917.8 -1.7 81
2020-07-12 18:00:00 21.1 14 Sur 26 Sudoeste 0 918.2 0.2 70
2020-07-12 17:00:00 20.2 4 Nordeste 17 Nordeste 0.4 917.4 1.3 88
2020-07-12 16:00:00 18.8 5 Oeste 50 Oeste 11.2 919.5 2.5 91
2020-07-12 15:00:00 26.8 14 Oeste 25 Sudoeste 0 918 -- 43
2020-07-12 14:00:00 31.4 6 Sudeste 19 Sur 0 916.1 -1.2 34
2020-07-12 13:00:00 28.9 4 Este 15 Oeste 0 917 -- 36
2020-07-12 12:00:00 28.5 4 Sur 17 Sur 0 916.9 -- 39
2020-07-12 11:00:00 24.8 8 Sudoeste 16 Sur 0 917.3 -- 49
2020-07-12 10:00:00 22.7 5 Sudoeste 14 Sudeste 0 917.6 0.8 57
2020-07-12 09:00:00 20.1 9 Sur 14 Sudeste 0 918.2 -- 73
2020-07-12 08:00:00 16.8 3 Este 6 Este 0 917.3 -- 85
2020-07-12 07:00:00 16.1 3 Sudeste 8 Sur 0 916.8 -- 88
2020-07-12 06:00:00 16.1 4 Sudeste 9 Sur 0 917.2 -- 90
2020-07-12 05:00:00 17 0 Calma 8 Este 0 916.7 -- 85
2020-07-12 04:00:00 16.9 3 Este 11 Sur 0 916.8 -- 86
2020-07-12 03:00:00 18.1 4 Oeste 10 Oeste 0 916.7 -- 81
2020-07-12 02:00:00 19.4 3 Sur 5 Este 0 916.8 -- 79
2020-07-12 01:00:00 20 3 Sur 11 Sur 0 917.5 -- 78
2020-07-12 00:00:00 21.1 6 Sur 15 Sur 0 917.7 -- 74
2020-07-11 23:00:00 22.2 6 Sur 17 Sudeste 0 917.5 -- 70
2020-07-11 22:00:00 23.6 5 Sudeste 19 Sudeste 0 916.6 -- 63
2020-07-11 21:00:00 25.6 7 Este 32 Sudeste 0 915.9 -- 54
2020-07-11 20:00:00 28.5 10 Sudeste 30 Sur 0 915.6 -- 47
2020-07-11 19:00:00 29.5 10 Este 28 Este 0 915.3 -0.5 43
2020-07-11 18:00:00 30.8 10 Sudeste 27 Sur 0 915.4 -- 40
2020-07-11 17:00:00 32 10 Sudeste 27 Sudeste 0 915.6 -- 36
2020-07-11 16:00:00 32.2 13 Sur 33 Sur 0 915.8 -- 33
2020-07-11 15:00:00 31.9 12 Sur 24 Sur 0 916.1 -- 31
2020-07-11 14:00:00 30.1 9 Sur 23 Sur 0 916.5 -- 36
2020-07-11 13:00:00 30.4 7 Sur 20 Sudeste 0 916.7 -- 35
2020-07-11 12:00:00 26.8 4 Sudeste 9 Sur 0 917 -- 43
2020-07-11 11:00:00 23.1 5 Sudoeste 12 Sudoeste 0 917.2 -- 57
2020-07-11 10:00:00 20.6 4 Oeste 10 Oeste 0 917.5 -- 65
2020-07-11 09:00:00 17.7 4 Noroeste 7 Norte 0 917.3 -- 75
2020-07-11 08:00:00 15.1 4 Oeste 8 Oeste 0 917.2 -- 86
2020-07-11 07:00:00 14.8 3 Oeste 6 Oeste 0 916.8 -- 85
2020-07-11 06:00:00 15.4 4 Oeste 8 Oeste 0 916.4 -- 83
2020-07-11 05:00:00 16 3 Noroeste 8 Oeste 0 916.2 -- 82
2020-07-11 04:00:00 16.7 5 Oeste 9 Oeste 0 916.1 -- 81
2020-07-11 03:00:00 17.5 3 Oeste 10 Oeste 0 916.3 -- 75
2020-07-11 02:00:00 18.3 4 Oeste 8 Noroeste 0 916.2 0.7 73
2020-07-11 01:00:00 19.5 2 Oeste 8 Oeste 0 916.2 -- 67
2020-07-11 00:00:00 21.2 6 Oeste 8 Oeste 0 916 -- 60
2020-07-10 23:00:00 22.7 2 Este 15 Sur 0 915.5 -- 54
2020-07-10 22:00:00 23.8 6 Sudeste 22 Sudeste 0 914.9 -- 52
2020-07-10 21:00:00 25.7 9 Este 20 Sudeste 0 914.5 -- 45
2020-07-10 20:00:00 27 5 Sudeste 20 Este 0 913.9 -- 41
2020-07-10 19:00:00 26.8 8 Este 30 Sudeste 0 913.5 -- 41
2020-07-10 18:00:00 27.4 12 Este 33 Este 0 913.3 -- 33
2020-07-10 17:00:00 31.2 11 Este 31 Nordeste 0 913.1 -- 29
2020-07-10 16:00:00 33.2 9 Sur 22 Sur 0 913.1 -- 26
2020-07-10 15:00:00 32.5 6 Oeste 17 Este 0 913.6 -- 23
2020-07-10 14:00:00 31.1 5 Sur 13 Sur 0 914.3 -1.3 26
2020-07-10 13:00:00 29 5 Oeste 14 Oeste 0 914.6 -- 28
2020-07-10 12:00:00 27 5 Norte 12 Noroeste 0 915 -- 38
2020-07-10 11:00:00 23.4 4 Sudoeste 10 Sudoeste 0 915.6 -0.5 52
2020-07-10 10:00:00 20.3 4 Sudoeste 8 Sudoeste 0 915.7 -- 59
2020-07-10 09:00:00 16.4 3 Sudoeste 9 Oeste 0 916.1 -- 73
2020-07-10 08:00:00 13.2 2 Noroeste 6 Nordeste 0 916.1 -- 86
2020-07-10 07:00:00 11.8 3 Nordeste 7 Noroeste 0 915.7 -- 90
2020-07-10 06:00:00 12.3 3 Noroeste 6 Norte 0 915.6 -- 88
2020-07-10 05:00:00 12.9 4 Norte 9 Norte 0 915.7 -- 87
2020-07-10 04:00:00 13.9 3 Oeste 8 Oeste 0 915.9 -- 82
2020-07-10 03:00:00 15.1 5 Noroeste 12 Noroeste 0 916.2 -- 78
2020-07-10 02:00:00 15.5 3 Nordeste 8 Oeste 0 916.6 -- 76
2020-07-10 01:00:00 16.6 5 Oeste 12 Oeste 0 916.8 -- 72
2020-07-10 00:00:00 17.7 3 Norte 9 Norte 0 916.9 -- 65
2020-07-09 23:00:00 18.9 3 Norte 16 Norte 0 917.3 -- 60
2020-07-09 22:00:00 19.6 8 Norte 53 Sudoeste 0 917 -- 58
2020-07-09 21:00:00 25.8 8 Sudoeste 19 Sudoeste 0 916.6 -- 44
2020-07-09 20:00:00 27.4 8 Sudeste 30 Sur 0 914.6 -- 41
2020-07-09 19:00:00 28.4 9 Sudeste 32 Sudeste 0 913.9 -- 29
2020-07-09 18:00:00 31.7 10 Sudeste 36 Sudeste 0 914.4 -- 28
2020-07-09 17:00:00 31.4 10 Este 26 Este 0 915 -- 30
2020-07-09 16:00:00 29.5 7 Este 14 Este 0 915.8 -- 35
2020-07-09 15:00:00 27.8 6 Nordeste 21 Norte 0 916.4 -- 45
2020-07-09 14:00:00 27.3 6 Nordeste 12 Nordeste 0 916.7 -- 45
2020-07-09 13:00:00 24.6 5 Oeste 12 Nordeste 0.2 917.1 -- 62
2020-07-09 12:00:00 24.3 3 Noroeste 10 Noroeste 0 917.2 -- 56
2020-07-09 11:00:00 21.8 4 Noroeste 16 Oeste 1 917.3 -- 69
2020-07-09 10:00:00 20.1 3 Este 8 Sudoeste 0.2 917.2 -- 74
2020-07-09 09:00:00 19.6 2 Sudoeste 8 Sur 0 917 -- 72
2020-07-09 08:00:00 16.3 3 Nordeste 5 Sudeste 0 917.1 -- 85
2020-07-09 07:00:00 16.2 0 Calma 6 Oeste 0 916.6 -- 84
2020-07-09 06:00:00 16.7 3 Este 19 Sur 0 916.4 -- 81
2020-07-09 05:00:00 17.4 6 Sur 15 Sur 0 916.4 -- 77
2020-07-09 04:00:00 16.2 3 Sur 5 Oeste 0 916.4 -- 82
2020-07-09 03:00:00 17.2 4 Este 8 Este 0 915.3 -- 76
2020-07-09 02:00:00 18.4 5 Sudeste 13 Oeste 0 915.9 -- 72
2020-07-09 01:00:00 20 4 Este 18 Sudoeste 0 917.1 -- 64
2020-07-09 00:00:00 20 7 Sudeste 24 Nordeste 0 916.8 -- 64
2020-07-08 23:00:00 19.1 6 Nordeste 22 Nordeste 0.4 917.7 -- 75
2020-07-08 22:00:00 20.2 7 Norte 17 Noroeste 0.2 918.4 -- 74
2020-07-08 21:00:00 20.7 5 Nordeste 15 Nordeste 0.2 917.6 -- 66
2020-07-08 20:00:00 22.1 4 Nordeste 21 Este 0.2 918.2 -- 55
2020-07-08 19:00:00 24.3 10 Sur 75 Oeste 0 917.7 -- 44
2020-07-08 18:00:00 25.5 48 Sudoeste 91 Oeste 0 916.3 -- 36
2020-07-08 17:00:00 31.9 5 Este 21 Este 0 914.5 -- 35
2020-07-08 16:00:00 33.1 5 Sudeste 14 Sur 0 914.3 -- 27
2020-07-08 15:00:00 33.7 4 Noroeste 12 Sur 0 914.9 -- 24
2020-07-08 14:00:00 32.5 3 Sudeste 14 Nordeste 0 915.6 -- 28
2020-07-08 13:00:00 28.7 2 Nordeste 14 Este 0 916.7 -- 37
2020-07-08 12:00:00 28.3 5 Este 32 Oeste 0 916.6 -- 43
2020-07-08 11:00:00 25.4 3 Sudoeste 10 Sudoeste 0 916 -- 55
2020-07-08 10:00:00 22.6 6 Sur 19 Sur 0 916.1 -- 68
2020-07-08 09:00:00 20.6 5 Sudeste 15 Sur 0 916.7 -- 74
2020-07-08 08:00:00 17.6 3 Este 5 Este 0 916.3 -- 79
2020-07-08 07:00:00 16.8 3 Norte 5 Nordeste 0 915.7 -- 81
2020-07-08 06:00:00 17.6 2 Nordeste 3 Nordeste 0 915.2 -- 85
2020-07-08 05:00:00 19.1 0 Calma 5 Este 0 915.4 -- 81
2020-07-08 04:00:00 19.8 3 Sudeste 9 Sur 0 915.7 -- 78
2020-07-08 03:00:00 20.1 3 Este 11 Sudeste 0 916.1 -- 78
2020-07-08 02:00:00 20.9 5 Sudeste 12 Sur 0 916.4 -- 73
2020-07-08 01:00:00 22.3 7 Sur 12 Sur 0 916.4 -- 68
2020-07-08 00:00:00 23.6 4 Sudeste 10 Sudeste 0 916.1 -- 67